sensor_id;sensor_type;location;lat;lon;timestamp;P1;durP1;ratioP1;P2;durP2;ratioP2
57319;SDS011;43158;51.026;18.190;2023-02-07T00:00:05;146.20;;;78.40;;
57319;SDS011;43158;51.026;18.190;2023-02-07T00:02:31;159.30;;;85.70;;
57319;SDS011;43158;51.026;18.190;2023-02-07T00:04:57;206.70;;;112.50;;
57319;SDS011;43158;51.026;18.190;2023-02-07T00:07:23;179.80;;;101.30;;
57319;SDS011;43158;51.026;18.190;2023-02-07T00:09:49;159.00;;;82.30;;
57319;SDS011;43158;51.026;18.190;2023-02-07T00:12:15;153.40;;;82.10;;
57319;SDS011;43158;51.026;18.190;2023-02-07T00:14:41;181.00;;;93.40;;
57319;SDS011;43158;51.026;18.190;2023-02-07T00:17:06;190.40;;;101.50;;
57319;SDS011;43158;51.026;18.190;2023-02-07T00:19:32;186.40;;;97.40;;
57319;SDS011;43158;51.026;18.190;2023-02-07T00:21:58;186.60;;;95.40;;
57319;SDS011;43158;51.026;18.190;2023-02-07T00:24:24;185.00;;;99.20;;
57319;SDS011;43158;51.026;18.190;2023-02-07T00:26:50;182.80;;;94.50;;
57319;SDS011;43158;51.026;18.190;2023-02-07T00:29:17;192.60;;;102.90;;
57319;SDS011;43158;51.026;18.190;2023-02-07T00:31:43;196.00;;;108.10;;
57319;SDS011;43158;51.026;18.190;2023-02-07T00:34:09;191.00;;;99.00;;
57319;SDS011;43158;51.026;18.190;2023-02-07T00:36:35;205.50;;;113.70;;
57319;SDS011;43158;51.026;18.190;2023-02-07T00:39:02;195.70;;;108.60;;
57319;SDS011;43158;51.026;18.190;2023-02-07T00:41:28;193.20;;;108.00;;
57319;SDS011;43158;51.026;18.190;2023-02-07T00:43:54;195.80;;;104.10;;
57319;SDS011;43158;51.026;18.190;2023-02-07T00:46:20;190.30;;;102.20;;
57319;SDS011;43158;51.026;18.190;2023-02-07T00:48:46;183.90;;;100.30;;
57319;SDS011;43158;51.026;18.190;2023-02-07T00:51:12;201.10;;;111.80;;
57319;SDS011;43158;51.026;18.190;2023-02-07T00:53:39;193.40;;;104.30;;
57319;SDS011;43158;51.026;18.190;2023-02-07T00:56:05;185.00;;;102.30;;
57319;SDS011;43158;51.026;18.190;2023-02-07T00:58:31;173.90;;;101.00;;
57319;SDS011;43158;51.026;18.190;2023-02-07T01:00:57;196.40;;;109.90;;
57319;SDS011;43158;51.026;18.190;2023-02-07T01:03:24;194.00;;;104.50;;
57319;SDS011;43158;51.026;18.190;2023-02-07T01:05:50;193.80;;;102.50;;
57319;SDS011;43158;51.026;18.190;2023-02-07T01:08:16;176.70;;;93.30;;
57319;SDS011;43158;51.026;18.190;2023-02-07T01:10:42;195.50;;;98.80;;
57319;SDS011;43158;51.026;18.190;2023-02-07T01:13:09;168.50;;;96.60;;
57319;SDS011;43158;51.026;18.190;2023-02-07T01:15:35;165.00;;;92.40;;
57319;SDS011;43158;51.026;18.190;2023-02-07T01:18:02;163.20;;;83.70;;
57319;SDS011;43158;51.026;18.190;2023-02-07T01:20:28;166.40;;;88.60;;
57319;SDS011;43158;51.026;18.190;2023-02-07T01:22:54;164.40;;;89.70;;
57319;SDS011;43158;51.026;18.190;2023-02-07T01:25:20;169.90;;;93.50;;
57319;SDS011;43158;51.026;18.190;2023-02-07T01:27:45;172.60;;;93.20;;
57319;SDS011;43158;51.026;18.190;2023-02-07T01:30:11;165.40;;;90.40;;
57319;SDS011;43158;51.026;18.190;2023-02-07T01:32:37;160.90;;;85.50;;
57319;SDS011;43158;51.026;18.190;2023-02-07T01:35:03;183.50;;;96.60;;
57319;SDS011;43158;51.026;18.190;2023-02-07T01:37:29;175.80;;;98.00;;
57319;SDS011;43158;51.026;18.190;2023-02-07T01:39:55;194.10;;;103.80;;
57319;SDS011;43158;51.026;18.190;2023-02-07T01:42:22;198.30;;;108.40;;
57319;SDS011;43158;51.026;18.190;2023-02-07T01:44:59;184.10;;;100.40;;
57319;SDS011;43158;51.026;18.190;2023-02-07T01:47:25;167.00;;;87.10;;
57319;SDS011;43158;51.026;18.190;2023-02-07T01:49:52;197.90;;;101.00;;
57319;SDS011;43158;51.026;18.190;2023-02-07T01:52:20;188.40;;;105.30;;
57319;SDS011;43158;51.026;18.190;2023-02-07T01:54:49;221.10;;;112.40;;
57319;SDS011;43158;51.026;18.190;2023-02-07T01:57:16;194.10;;;106.40;;
57319;SDS011;43158;51.026;18.190;2023-02-07T01:59:43;203.00;;;110.50;;
57319;SDS011;43158;51.026;18.190;2023-02-07T02:02:11;192.20;;;111.20;;
57319;SDS011;43158;51.026;18.190;2023-02-07T02:04:38;196.80;;;109.10;;
57319;SDS011;43158;51.026;18.190;2023-02-07T02:07:05;197.60;;;108.10;;
57319;SDS011;43158;51.026;18.190;2023-02-07T02:09:31;194.90;;;108.50;;
57319;SDS011;43158;51.026;18.190;2023-02-07T02:22:41;192.20;;;104.00;;
57319;SDS011;43158;51.026;18.190;2023-02-07T02:35:34;151.30;;;83.30;;
57319;SDS011;43158;51.026;18.190;2023-02-07T02:40:49;181.00;;;96.60;;
57319;SDS011;43158;51.026;18.190;2023-02-07T02:43:23;171.50;;;92.60;;
57319;SDS011;43158;51.026;18.190;2023-02-07T02:45:53;149.70;;;83.30;;
57319;SDS011;43158;51.026;18.190;2023-02-07T02:48:20;127.90;;;70.80;;
57319;SDS011;43158;51.026;18.190;2023-02-07T02:50:47;127.00;;;65.60;;
57319;SDS011;43158;51.026;18.190;2023-02-07T02:53:13;107.70;;;60.40;;
57319;SDS011;43158;51.026;18.190;2023-02-07T02:55:53;119.10;;;66.90;;
57319;SDS011;43158;51.026;18.190;2023-02-07T03:03:37;101.10;;;56.20;;
57319;SDS011;43158;51.026;18.190;2023-02-07T03:06:18;97.10;;;56.10;;
57319;SDS011;43158;51.026;18.190;2023-02-07T03:11:31;80.10;;;50.00;;
57319;SDS011;43158;51.026;18.190;2023-02-07T03:17:00;83.00;;;49.40;;
57319;SDS011;43158;51.026;18.190;2023-02-07T03:21:59;84.00;;;46.70;;
57319;SDS011;43158;51.026;18.190;2023-02-07T03:24:26;76.00;;;43.60;;
57319;SDS011;43158;51.026;18.190;2023-02-07T03:26:55;75.00;;;45.30;;
57319;SDS011;43158;51.026;18.190;2023-02-07T03:29:21;81.10;;;48.50;;
57319;SDS011;43158;51.026;18.190;2023-02-07T03:31:49;91.60;;;55.20;;
57319;SDS011;43158;51.026;18.190;2023-02-07T03:34:22;83.30;;;47.90;;
57319;SDS011;43158;51.026;18.190;2023-02-07T03:36:54;99.40;;;57.50;;
57319;SDS011;43158;51.026;18.190;2023-02-07T03:39:22;94.20;;;54.70;;
57319;SDS011;43158;51.026;18.190;2023-02-07T03:41:49;93.70;;;52.80;;
57319;SDS011;43158;51.026;18.190;2023-02-07T03:46:42;114.20;;;64.20;;
57319;SDS011;43158;51.026;18.190;2023-02-07T03:49:09;92.70;;;51.70;;
57319;SDS011;43158;51.026;18.190;2023-02-07T03:51:35;96.70;;;55.60;;
57319;SDS011;43158;51.026;18.190;2023-02-07T03:54:02;141.30;;;73.80;;
57319;SDS011;43158;51.026;18.190;2023-02-07T03:56:28;123.00;;;71.90;;
57319;SDS011;43158;51.026;18.190;2023-02-07T03:58:53;145.20;;;80.90;;
57319;SDS011;43158;51.026;18.190;2023-02-07T04:01:19;131.90;;;72.90;;
57319;SDS011;43158;51.026;18.190;2023-02-07T04:03:45;126.70;;;72.30;;
57319;SDS011;43158;51.026;18.190;2023-02-07T04:06:11;125.80;;;73.10;;
57319;SDS011;43158;51.026;18.190;2023-02-07T04:08:37;129.20;;;73.70;;
57319;SDS011;43158;51.026;18.190;2023-02-07T04:11:02;120.90;;;71.70;;
57319;SDS011;43158;51.026;18.190;2023-02-07T04:13:29;123.10;;;73.70;;
57319;SDS011;43158;51.026;18.190;2023-02-07T04:15:55;138.30;;;73.60;;
57319;SDS011;43158;51.026;18.190;2023-02-07T04:18:20;134.40;;;72.30;;
57319;SDS011;43158;51.026;18.190;2023-02-07T04:20:46;129.00;;;74.70;;
57319;SDS011;43158;51.026;18.190;2023-02-07T04:23:12;117.40;;;68.00;;
57319;SDS011;43158;51.026;18.190;2023-02-07T04:25:38;124.60;;;75.10;;
57319;SDS011;43158;51.026;18.190;2023-02-07T04:28:04;133.20;;;75.20;;
57319;SDS011;43158;51.026;18.190;2023-02-07T04:30:30;124.80;;;66.30;;
57319;SDS011;43158;51.026;18.190;2023-02-07T04:32:56;132.10;;;75.90;;
57319;SDS011;43158;51.026;18.190;2023-02-07T04:35:22;127.30;;;68.70;;
57319;SDS011;43158;51.026;18.190;2023-02-07T04:37:48;111.80;;;62.20;;
57319;SDS011;43158;51.026;18.190;2023-02-07T04:40:14;123.00;;;70.10;;
57319;SDS011;43158;51.026;18.190;2023-02-07T04:42:40;98.60;;;56.80;;
57319;SDS011;43158;51.026;18.190;2023-02-07T04:45:06;103.50;;;57.30;;
57319;SDS011;43158;51.026;18.190;2023-02-07T04:47:32;108.10;;;60.20;;
57319;SDS011;43158;51.026;18.190;2023-02-07T04:49:58;89.10;;;53.20;;
57319;SDS011;43158;51.026;18.190;2023-02-07T04:52:24;101.30;;;57.90;;
57319;SDS011;43158;51.026;18.190;2023-02-07T04:54:50;91.70;;;55.20;;
57319;SDS011;43158;51.026;18.190;2023-02-07T04:57:16;101.00;;;55.20;;
57319;SDS011;43158;51.026;18.190;2023-02-07T04:59:42;107.60;;;59.10;;
57319;SDS011;43158;51.026;18.190;2023-02-07T05:02:07;102.40;;;56.20;;
57319;SDS011;43158;51.026;18.190;2023-02-07T05:04:33;102.70;;;61.50;;
57319;SDS011;43158;51.026;18.190;2023-02-07T05:06:59;106.70;;;60.70;;
57319;SDS011;43158;51.026;18.190;2023-02-07T05:09:25;102.30;;;62.00;;
57319;SDS011;43158;51.026;18.190;2023-02-07T05:11:51;100.70;;;59.30;;
57319;SDS011;43158;51.026;18.190;2023-02-07T05:14:16;107.30;;;61.90;;
57319;SDS011;43158;51.026;18.190;2023-02-07T05:16:42;97.60;;;57.10;;
57319;SDS011;43158;51.026;18.190;2023-02-07T05:19:09;103.30;;;61.00;;
57319;SDS011;43158;51.026;18.190;2023-02-07T05:21:34;100.70;;;57.80;;
57319;SDS011;43158;51.026;18.190;2023-02-07T05:24:00;94.50;;;57.60;;
57319;SDS011;43158;51.026;18.190;2023-02-07T05:26:26;102.60;;;58.70;;
57319;SDS011;43158;51.026;18.190;2023-02-07T05:28:52;97.90;;;56.50;;
57319;SDS011;43158;51.026;18.190;2023-02-07T05:31:18;101.00;;;58.50;;
57319;SDS011;43158;51.026;18.190;2023-02-07T05:33:44;97.90;;;57.60;;
57319;SDS011;43158;51.026;18.190;2023-02-07T05:36:10;98.20;;;55.80;;
57319;SDS011;43158;51.026;18.190;2023-02-07T05:38:36;101.30;;;54.40;;
57319;SDS011;43158;51.026;18.190;2023-02-07T05:41:01;87.30;;;47.70;;
57319;SDS011;43158;51.026;18.190;2023-02-07T05:43:27;93.90;;;52.00;;
57319;SDS011;43158;51.026;18.190;2023-02-07T05:45:53;93.80;;;50.30;;
57319;SDS011;43158;51.026;18.190;2023-02-07T05:48:19;93.30;;;52.10;;
57319;SDS011;43158;51.026;18.190;2023-02-07T05:50:44;86.20;;;51.50;;
57319;SDS011;43158;51.026;18.190;2023-02-07T05:53:10;87.50;;;51.60;;
57319;SDS011;43158;51.026;18.190;2023-02-07T05:55:37;92.30;;;50.80;;
57319;SDS011;43158;51.026;18.190;2023-02-07T05:58:02;82.40;;;51.70;;
57319;SDS011;43158;51.026;18.190;2023-02-07T06:00:28;94.90;;;52.10;;
57319;SDS011;43158;51.026;18.190;2023-02-07T06:02:54;84.60;;;51.00;;
57319;SDS011;43158;51.026;18.190;2023-02-07T06:05:20;88.70;;;51.10;;
57319;SDS011;43158;51.026;18.190;2023-02-07T06:07:47;88.60;;;48.20;;
57319;SDS011;43158;51.026;18.190;2023-02-07T06:10:14;80.50;;;48.70;;
57319;SDS011;43158;51.026;18.190;2023-02-07T06:12:40;85.70;;;51.10;;
57319;SDS011;43158;51.026;18.190;2023-02-07T06:15:06;90.80;;;53.30;;
57319;SDS011;43158;51.026;18.190;2023-02-07T06:17:32;83.70;;;51.80;;
57319;SDS011;43158;51.026;18.190;2023-02-07T06:19:57;86.10;;;52.60;;
57319;SDS011;43158;51.026;18.190;2023-02-07T06:22:23;86.20;;;51.00;;
57319;SDS011;43158;51.026;18.190;2023-02-07T06:24:49;85.10;;;50.90;;
57319;SDS011;43158;51.026;18.190;2023-02-07T06:27:16;81.10;;;48.40;;
57319;SDS011;43158;51.026;18.190;2023-02-07T06:29:41;85.10;;;51.10;;
57319;SDS011;43158;51.026;18.190;2023-02-07T06:32:07;84.50;;;52.50;;
57319;SDS011;43158;51.026;18.190;2023-02-07T06:34:33;82.20;;;50.00;;
57319;SDS011;43158;51.026;18.190;2023-02-07T06:36:58;79.10;;;50.60;;
57319;SDS011;43158;51.026;18.190;2023-02-07T06:39:24;87.80;;;51.60;;
57319;SDS011;43158;51.026;18.190;2023-02-07T06:41:50;87.60;;;51.10;;
57319;SDS011;43158;51.026;18.190;2023-02-07T06:44:16;82.10;;;50.20;;
57319;SDS011;43158;51.026;18.190;2023-02-07T06:46:42;90.40;;;53.40;;
57319;SDS011;43158;51.026;18.190;2023-02-07T06:49:08;108.70;;;60.70;;
57319;SDS011;43158;51.026;18.190;2023-02-07T06:51:34;100.50;;;61.40;;
57319;SDS011;43158;51.026;18.190;2023-02-07T06:54:00;106.10;;;60.10;;
57319;SDS011;43158;51.026;18.190;2023-02-07T06:56:28;117.40;;;64.00;;
57319;SDS011;43158;51.026;18.190;2023-02-07T06:58:54;99.20;;;60.50;;
57319;SDS011;43158;51.026;18.190;2023-02-07T07:01:20;91.80;;;55.60;;
57319;SDS011;43158;51.026;18.190;2023-02-07T07:03:46;80.40;;;49.90;;
57319;SDS011;43158;51.026;18.190;2023-02-07T07:06:12;88.80;;;51.90;;
57319;SDS011;43158;51.026;18.190;2023-02-07T07:08:38;88.80;;;54.00;;
57319;SDS011;43158;51.026;18.190;2023-02-07T07:11:04;87.30;;;54.00;;
57319;SDS011;43158;51.026;18.190;2023-02-07T07:13:30;85.90;;;51.30;;
57319;SDS011;43158;51.026;18.190;2023-02-07T07:15:56;76.40;;;50.20;;
57319;SDS011;43158;51.026;18.190;2023-02-07T07:18:22;84.50;;;52.70;;
57319;SDS011;43158;51.026;18.190;2023-02-07T07:20:53;89.80;;;51.60;;
57319;SDS011;43158;51.026;18.190;2023-02-07T07:23:19;90.10;;;54.70;;
57319;SDS011;43158;51.026;18.190;2023-02-07T07:25:45;89.30;;;57.10;;
57319;SDS011;43158;51.026;18.190;2023-02-07T07:28:11;86.60;;;53.40;;
57319;SDS011;43158;51.026;18.190;2023-02-07T07:30:37;86.10;;;53.40;;
57319;SDS011;43158;51.026;18.190;2023-02-07T07:33:02;92.40;;;56.80;;
57319;SDS011;43158;51.026;18.190;2023-02-07T07:35:28;96.80;;;56.50;;
57319;SDS011;43158;51.026;18.190;2023-02-07T07:37:54;88.60;;;58.50;;
57319;SDS011;43158;51.026;18.190;2023-02-07T07:40:20;94.70;;;58.20;;
57319;SDS011;43158;51.026;18.190;2023-02-07T07:42:49;89.50;;;55.20;;
57319;SDS011;43158;51.026;18.190;2023-02-07T07:45:15;82.30;;;47.90;;
57319;SDS011;43158;51.026;18.190;2023-02-07T07:47:40;91.00;;;57.00;;
57319;SDS011;43158;51.026;18.190;2023-02-07T07:50:06;99.10;;;62.40;;
57319;SDS011;43158;51.026;18.190;2023-02-07T07:52:32;111.20;;;67.00;;
57319;SDS011;43158;51.026;18.190;2023-02-07T07:54:59;108.70;;;67.00;;
57319;SDS011;43158;51.026;18.190;2023-02-07T07:57:25;125.00;;;74.20;;
57319;SDS011;43158;51.026;18.190;2023-02-07T07:59:53;117.80;;;72.40;;
57319;SDS011;43158;51.026;18.190;2023-02-07T08:02:18;108.10;;;67.50;;
57319;SDS011;43158;51.026;18.190;2023-02-07T08:04:44;103.20;;;57.30;;
57319;SDS011;43158;51.026;18.190;2023-02-07T08:07:10;119.90;;;62.10;;
57319;SDS011;43158;51.026;18.190;2023-02-07T08:09:36;103.50;;;64.00;;
57319;SDS011;43158;51.026;18.190;2023-02-07T08:12:02;83.60;;;50.80;;
57319;SDS011;43158;51.026;18.190;2023-02-07T08:14:28;83.80;;;52.00;;
57319;SDS011;43158;51.026;18.190;2023-02-07T08:16:53;78.00;;;51.20;;
57319;SDS011;43158;51.026;18.190;2023-02-07T08:19:19;81.60;;;52.70;;
57319;SDS011;43158;51.026;18.190;2023-02-07T08:21:45;151.20;;;71.50;;
57319;SDS011;43158;51.026;18.190;2023-02-07T08:24:11;95.50;;;55.40;;
57319;SDS011;43158;51.026;18.190;2023-02-07T08:26:37;78.20;;;49.00;;
57319;SDS011;43158;51.026;18.190;2023-02-07T08:29:02;79.60;;;52.70;;
57319;SDS011;43158;51.026;18.190;2023-02-07T08:31:29;87.40;;;53.00;;
57319;SDS011;43158;51.026;18.190;2023-02-07T08:33:55;81.00;;;56.00;;
57319;SDS011;43158;51.026;18.190;2023-02-07T08:36:21;87.00;;;57.20;;
57319;SDS011;43158;51.026;18.190;2023-02-07T08:38:47;83.60;;;56.10;;
57319;SDS011;43158;51.026;18.190;2023-02-07T08:41:12;82.80;;;53.30;;
57319;SDS011;43158;51.026;18.190;2023-02-07T08:43:38;80.70;;;56.50;;
57319;SDS011;43158;51.026;18.190;2023-02-07T08:46:04;84.50;;;53.60;;
57319;SDS011;43158;51.026;18.190;2023-02-07T08:48:30;81.20;;;53.50;;
57319;SDS011;43158;51.026;18.190;2023-02-07T08:50:56;78.20;;;52.20;;
57319;SDS011;43158;51.026;18.190;2023-02-07T08:53:23;80.20;;;52.90;;
57319;SDS011;43158;51.026;18.190;2023-02-07T08:55:49;75.50;;;51.50;;
57319;SDS011;43158;51.026;18.190;2023-02-07T08:58:16;77.20;;;49.20;;
57319;SDS011;43158;51.026;18.190;2023-02-07T09:00:41;74.20;;;50.10;;
57319;SDS011;43158;51.026;18.190;2023-02-07T09:03:08;71.30;;;50.10;;
57319;SDS011;43158;51.026;18.190;2023-02-07T09:05:34;72.20;;;45.80;;
57319;SDS011;43158;51.026;18.190;2023-02-07T09:08:00;79.90;;;52.50;;
57319;SDS011;43158;51.026;18.190;2023-02-07T09:10:26;75.20;;;49.30;;
57319;SDS011;43158;51.026;18.190;2023-02-07T09:12:52;88.50;;;54.40;;
57319;SDS011;43158;51.026;18.190;2023-02-07T09:15:18;80.80;;;55.50;;
57319;SDS011;43158;51.026;18.190;2023-02-07T09:17:44;88.00;;;58.50;;
57319;SDS011;43158;51.026;18.190;2023-02-07T09:20:10;261.70;;;201.30;;
57319;SDS011;43158;51.026;18.190;2023-02-07T09:22:36;119.50;;;63.20;;
57319;SDS011;43158;51.026;18.190;2023-02-07T09:25:22;220.30;;;90.70;;
57319;SDS011;43158;51.026;18.190;2023-02-07T09:27:48;85.90;;;53.40;;
57319;SDS011;43158;51.026;18.190;2023-02-07T09:30:14;84.70;;;55.20;;
57319;SDS011;43158;51.026;18.190;2023-02-07T09:32:40;88.70;;;57.50;;
57319;SDS011;43158;51.026;18.190;2023-02-07T09:35:06;91.00;;;57.10;;
57319;SDS011;43158;51.026;18.190;2023-02-07T09:37:33;83.80;;;51.90;;
57319;SDS011;43158;51.026;18.190;2023-02-07T09:39:59;79.10;;;53.20;;
57319;SDS011;43158;51.026;18.190;2023-02-07T09:44:58;69.20;;;47.10;;
57319;SDS011;43158;51.026;18.190;2023-02-07T09:47:25;71.00;;;49.10;;
57319;SDS011;43158;51.026;18.190;2023-02-07T09:49:53;76.60;;;48.40;;
57319;SDS011;43158;51.026;18.190;2023-02-07T09:52:39;65.10;;;43.20;;
57319;SDS011;43158;51.026;18.190;2023-02-07T09:55:13;77.00;;;48.00;;
57319;SDS011;43158;51.026;18.190;2023-02-07T09:57:45;173.50;;;74.70;;
57319;SDS011;43158;51.026;18.190;2023-02-07T10:02:56;77.00;;;49.40;;
57319;SDS011;43158;51.026;18.190;2023-02-07T10:05:31;70.50;;;47.20;;
57319;SDS011;43158;51.026;18.190;2023-02-07T10:07:59;76.80;;;54.70;;
57319;SDS011;43158;51.026;18.190;2023-02-07T10:13:00;74.30;;;49.20;;
57319;SDS011;43158;51.026;18.190;2023-02-07T10:20:37;75.80;;;51.90;;
57319;SDS011;43158;51.026;18.190;2023-02-07T10:25:43;83.40;;;52.90;;
57319;SDS011;43158;51.026;18.190;2023-02-07T10:30:42;80.50;;;53.30;;
57319;SDS011;43158;51.026;18.190;2023-02-07T10:35:39;92.40;;;61.60;;
57319;SDS011;43158;51.026;18.190;2023-02-07T10:38:13;73.20;;;48.60;;
57319;SDS011;43158;51.026;18.190;2023-02-07T10:40:52;73.40;;;49.00;;
57319;SDS011;43158;51.026;18.190;2023-02-07T10:43:27;64.90;;;44.60;;
57319;SDS011;43158;51.026;18.190;2023-02-07T10:45:55;65.40;;;45.60;;
57319;SDS011;43158;51.026;18.190;2023-02-07T10:48:23;59.80;;;39.80;;
57319;SDS011;43158;51.026;18.190;2023-02-07T10:50:49;68.00;;;44.90;;
57319;SDS011;43158;51.026;18.190;2023-02-07T10:55:59;59.80;;;43.50;;
57319;SDS011;43158;51.026;18.190;2023-02-07T10:58:25;64.50;;;46.60;;
57319;SDS011;43158;51.026;18.190;2023-02-07T11:01:02;74.90;;;48.60;;
57319;SDS011;43158;51.026;18.190;2023-02-07T11:03:30;67.00;;;44.10;;
57319;SDS011;43158;51.026;18.190;2023-02-07T11:05:57;62.00;;;41.80;;
57319;SDS011;43158;51.026;18.190;2023-02-07T11:08:30;62.50;;;44.40;;
57319;SDS011;43158;51.026;18.190;2023-02-07T11:10:58;56.60;;;41.40;;
57319;SDS011;43158;51.026;18.190;2023-02-07T11:13:25;61.20;;;45.00;;
57319;SDS011;43158;51.026;18.190;2023-02-07T11:16:00;55.60;;;39.70;;
57319;SDS011;43158;51.026;18.190;2023-02-07T11:23:57;68.60;;;49.50;;
57319;SDS011;43158;51.026;18.190;2023-02-07T11:26:24;68.60;;;43.50;;
57319;SDS011;43158;51.026;18.190;2023-02-07T11:28:53;60.30;;;42.40;;
57319;SDS011;43158;51.026;18.190;2023-02-07T11:31:27;66.00;;;45.20;;
57319;SDS011;43158;51.026;18.190;2023-02-07T11:33:58;66.60;;;43.20;;
57319;SDS011;43158;51.026;18.190;2023-02-07T11:36:32;68.20;;;46.80;;
57319;SDS011;43158;51.026;18.190;2023-02-07T11:38:59;74.80;;;52.20;;
57319;SDS011;43158;51.026;18.190;2023-02-07T11:41:27;64.20;;;45.80;;
57319;SDS011;43158;51.026;18.190;2023-02-07T11:46:20;67.30;;;46.90;;
57319;SDS011;43158;51.026;18.190;2023-02-07T11:48:47;77.40;;;49.30;;
57319;SDS011;43158;51.026;18.190;2023-02-07T11:51:15;67.10;;;49.00;;
57319;SDS011;43158;51.026;18.190;2023-02-07T11:54:03;108.80;;;70.80;;
57319;SDS011;43158;51.026;18.190;2023-02-07T11:56:31;79.00;;;52.50;;
57319;SDS011;43158;51.026;18.190;2023-02-07T11:58:58;71.70;;;48.00;;
57319;SDS011;43158;51.026;18.190;2023-02-07T12:01:28;63.80;;;44.30;;
57319;SDS011;43158;51.026;18.190;2023-02-07T12:03:59;74.40;;;47.00;;
57319;SDS011;43158;51.026;18.190;2023-02-07T12:06:48;59.40;;;42.00;;
57319;SDS011;43158;51.026;18.190;2023-02-07T12:11:47;94.00;;;60.20;;
57319;SDS011;43158;51.026;18.190;2023-02-07T12:14:17;138.40;;;72.60;;
57319;SDS011;43158;51.026;18.190;2023-02-07T12:16:48;72.00;;;47.50;;
57319;SDS011;43158;51.026;18.190;2023-02-07T12:19:20;63.90;;;43.80;;
57319;SDS011;43158;51.026;18.190;2023-02-07T12:24:31;63.30;;;42.00;;
57319;SDS011;43158;51.026;18.190;2023-02-07T12:27:15;64.70;;;46.30;;
57319;SDS011;43158;51.026;18.190;2023-02-07T12:32:49;55.30;;;40.30;;
57319;SDS011;43158;51.026;18.190;2023-02-07T12:35:32;54.40;;;34.10;;
57319;SDS011;43158;51.026;18.190;2023-02-07T12:43:31;45.00;;;30.40;;
57319;SDS011;43158;51.026;18.190;2023-02-07T12:48:30;38.10;;;27.90;;
57319;SDS011;43158;51.026;18.190;2023-02-07T12:58:53;30.10;;;21.10;;
57319;SDS011;43158;51.026;18.190;2023-02-07T13:01:39;25.90;;;18.40;;
57319;SDS011;43158;51.026;18.190;2023-02-07T13:11:38;25.30;;;19.40;;
57319;SDS011;43158;51.026;18.190;2023-02-07T13:14:17;30.50;;;24.50;;
57319;SDS011;43158;51.026;18.190;2023-02-07T13:17:26;30.10;;;23.00;;
57319;SDS011;43158;51.026;18.190;2023-02-07T13:25:14;32.00;;;24.50;;
57319;SDS011;43158;51.026;18.190;2023-02-07T13:27:41;30.10;;;22.60;;
57319;SDS011;43158;51.026;18.190;2023-02-07T13:30:12;25.60;;;20.90;;
57319;SDS011;43158;51.026;18.190;2023-02-07T13:32:39;28.90;;;20.80;;
57319;SDS011;43158;51.026;18.190;2023-02-07T13:35:06;24.30;;;21.00;;
57319;SDS011;43158;51.026;18.190;2023-02-07T13:40:35;28.90;;;24.00;;
57319;SDS011;43158;51.026;18.190;2023-02-07T13:45:54;25.50;;;19.80;;
57319;SDS011;43158;51.026;18.190;2023-02-07T13:56:10;23.70;;;17.70;;
57319;SDS011;43158;51.026;18.190;2023-02-07T13:58:55;25.80;;;17.90;;
57319;SDS011;43158;51.026;18.190;2023-02-07T14:01:52;20.40;;;17.90;;
57319;SDS011;43158;51.026;18.190;2023-02-07T14:04:19;24.00;;;19.20;;
57319;SDS011;43158;51.026;18.190;2023-02-07T14:11:55;38.00;;;29.00;;
57319;SDS011;43158;51.026;18.190;2023-02-07T14:14:25;34.70;;;21.60;;
57319;SDS011;43158;51.026;18.190;2023-02-07T14:16:53;28.40;;;23.40;;
57319;SDS011;43158;51.026;18.190;2023-02-07T14:22:14;26.90;;;20.20;;
57319;SDS011;43158;51.026;18.190;2023-02-07T14:37:54;29.60;;;22.70;;
57319;SDS011;43158;51.026;18.190;2023-02-07T14:42:59;28.70;;;18.70;;
57319;SDS011;43158;51.026;18.190;2023-02-07T14:45:30;23.40;;;17.90;;
57319;SDS011;43158;51.026;18.190;2023-02-07T14:47:56;34.60;;;20.80;;
57319;SDS011;43158;51.026;18.190;2023-02-07T14:50:24;34.40;;;20.50;;
57319;SDS011;43158;51.026;18.190;2023-02-07T14:52:59;42.30;;;25.90;;
57319;SDS011;43158;51.026;18.190;2023-02-07T15:02:54;26.00;;;18.20;;
57319;SDS011;43158;51.026;18.190;2023-02-07T15:07:54;40.90;;;22.40;;
57319;SDS011;43158;51.026;18.190;2023-02-07T15:10:25;33.10;;;21.50;;
57319;SDS011;43158;51.026;18.190;2023-02-07T15:12:51;31.00;;;23.70;;
57319;SDS011;43158;51.026;18.190;2023-02-07T15:15:19;28.30;;;20.40;;
57319;SDS011;43158;51.026;18.190;2023-02-07T15:17:47;29.70;;;21.00;;
57319;SDS011;43158;51.026;18.190;2023-02-07T15:20:18;28.90;;;21.20;;
57319;SDS011;43158;51.026;18.190;2023-02-07T15:22:54;30.60;;;22.80;;
57319;SDS011;43158;51.026;18.190;2023-02-07T15:25:20;24.20;;;19.50;;
57319;SDS011;43158;51.026;18.190;2023-02-07T15:28:01;37.20;;;30.60;;
57319;SDS011;43158;51.026;18.190;2023-02-07T15:30:27;60.80;;;44.10;;
57319;SDS011;43158;51.026;18.190;2023-02-07T15:32:54;69.20;;;38.30;;
57319;SDS011;43158;51.026;18.190;2023-02-07T15:35:27;58.30;;;33.90;;
57319;SDS011;43158;51.026;18.190;2023-02-07T15:37:54;41.30;;;28.20;;
57319;SDS011;43158;51.026;18.190;2023-02-07T15:40:37;32.30;;;22.00;;
57319;SDS011;43158;51.026;18.190;2023-02-07T15:43:04;27.40;;;21.60;;
57319;SDS011;43158;51.026;18.190;2023-02-07T15:45:31;62.20;;;45.80;;
57319;SDS011;43158;51.026;18.190;2023-02-07T15:47:58;56.20;;;37.50;;
57319;SDS011;43158;51.026;18.190;2023-02-07T15:50:25;40.50;;;28.40;;
57319;SDS011;43158;51.026;18.190;2023-02-07T15:52:54;33.50;;;24.00;;
57319;SDS011;43158;51.026;18.190;2023-02-07T15:55:22;120.30;;;50.50;;
57319;SDS011;43158;51.026;18.190;2023-02-07T15:57:51;101.60;;;46.60;;
57319;SDS011;43158;51.026;18.190;2023-02-07T16:00:22;88.30;;;40.60;;
57319;SDS011;43158;51.026;18.190;2023-02-07T16:03:22;73.30;;;40.00;;
57319;SDS011;43158;51.026;18.190;2023-02-07T16:05:40;44.30;;;28.50;;
57319;SDS011;43158;51.026;18.190;2023-02-07T16:08:28;60.70;;;35.80;;
57319;SDS011;43158;51.026;18.190;2023-02-07T16:10:52;37.90;;;24.30;;
57319;SDS011;43158;51.026;18.190;2023-02-07T16:13:19;38.80;;;27.80;;
57319;SDS011;43158;51.026;18.190;2023-02-07T16:15:56;40.40;;;30.70;;
57319;SDS011;43158;51.026;18.190;2023-02-07T16:18:33;32.50;;;23.40;;
57319;SDS011;43158;51.026;18.190;2023-02-07T16:20:59;37.20;;;32.90;;
57319;SDS011;43158;51.026;18.190;2023-02-07T16:23:25;39.00;;;31.10;;
57319;SDS011;43158;51.026;18.190;2023-02-07T16:25:52;31.30;;;26.30;;
57319;SDS011;43158;51.026;18.190;2023-02-07T16:28:18;35.70;;;27.00;;
57319;SDS011;43158;51.026;18.190;2023-02-07T16:30:44;37.60;;;27.50;;
57319;SDS011;43158;51.026;18.190;2023-02-07T16:33:11;31.60;;;22.10;;
57319;SDS011;43158;51.026;18.190;2023-02-07T16:35:38;192.20;;;98.80;;
57319;SDS011;43158;51.026;18.190;2023-02-07T16:38:04;73.10;;;42.00;;
57319;SDS011;43158;51.026;18.190;2023-02-07T16:40:30;46.90;;;29.50;;
57319;SDS011;43158;51.026;18.190;2023-02-07T16:42:56;26.50;;;20.00;;